Time;durP1;ratioP1;P1;durP2;ratioP2;P2;SDS_P1;SDS_P2;PMS_P1;PMS_P2;Temp;Humidity;BMP_temperature;BMP_pressure;BME280_temperature;BME280_humidity;BME280_pressure;Samples;Min_cycle;Max_cycle;Signal;HPM_P1;HPM_P2
2021/12/24 00:02:02;;;;;;;4.32;2.80;;;;;;;;;;5042967;28;20065;-56
2021/12/24 00:04:28;;;;;;;3.47;2.15;;;;;;;;;;5031951;28;20364;-56
2021/12/24 00:06:54;;;;;;;4.15;2.50;;;;;;;;;;5031958;28;20032;-56
2021/12/24 00:09:22;;;;;;;4.75;2.67;;;;;;;;;;5031188;28;20090;-56
2021/12/24 00:11:49;;;;;;;6.05;2.70;;;;;;;;;;5033038;28;20051;-56
2021/12/24 00:14:15;;;;;;;3.25;2.30;;;;;;;;;;5054847;28;20025;-52
2021/12/24 00:16:46;;;;;;;4.13;2.72;;;;;;;;;;5055739;28;20074;-54
2021/12/24 00:37:36;;;;;;;4.10;2.40;;;;;;;;;;5055100;28;20117;-52
2021/12/24 00:40:13;;;;;;;6.93;3.03;;;;;;;;;;5054666;28;20025;-56
2021/12/24 00:42:43;;;;;;;4.03;2.25;;;;;;;;;;5055426;28;20425;-56
2021/12/24 00:45:09;;;;;;;5.93;3.20;;;;;;;;;;5055082;28;20029;-54
2021/12/24 00:47:35;;;;;;;3.92;2.25;;;;;;;;;;5055130;28;20479;-56
2021/12/24 00:50:08;;;;;;;5.55;2.35;;;;;;;;;;5054137;28;20033;-56
2021/12/24 00:52:47;;;;;;;5.25;2.85;;;;;;;;;;5054901;28;20386;-55
2021/12/24 00:55:14;;;;;;;4.20;2.45;;;;;;;;;;5054924;28;20025;-54
2021/12/24 00:57:42;;;;;;;4.15;2.35;;;;;;;;;;5054866;28;20360;-54
2021/12/24 01:00:11;;;;;;;4.28;2.80;;;;;;;;;;5054177;28;20037;-54
2021/12/24 01:02:37;;;;;;;3.97;2.45;;;;;;;;;;5041007;28;20033;-56
2021/12/24 01:05:03;;;;;;;3.22;1.95;;;;;;;;;;5034849;28;20021;-54
2021/12/24 01:07:29;;;;;;;5.03;2.83;;;;;;;;;;5034788;28;20021;-52
2021/12/24 01:09:55;;;;;;;3.40;2.13;;;;;;;;;;5032740;28;20141;-55
2021/12/24 01:12:22;;;;;;;2.95;2.13;;;;;;;;;;5040495;28;20052;-54
2021/12/24 01:14:49;;;;;;;2.85;2.03;;;;;;;;;;5054254;28;20524;-53
2021/12/24 01:19:58;;;;;;;7.03;2.92;;;;;;;;;;5053829;28;20062;-53
2021/12/24 01:25:00;;;;;;;3.45;2.38;;;;;;;;;;5054083;28;20437;-52
2021/12/24 01:28:28;;;;;;;3.95;2.65;;;;;;;;;;5054611;28;20117;-55
2021/12/24 01:38:16;;;;;;;4.13;2.20;;;;;;;;;;5053690;28;20537;-56
2021/12/24 01:41:04;;;;;;;5.82;1.95;;;;;;;;;;5054047;28;20461;-55
2021/12/24 01:43:30;;;;;;;3.17;2.22;;;;;;;;;;5054100;28;20257;-53
2021/12/24 01:45:58;;;;;;;5.68;2.03;;;;;;;;;;5053838;28;20025;-56
2021/12/24 01:48:24;;;;;;;4.45;2.40;;;;;;;;;;5053256;28;20025;-55
2021/12/24 01:50:51;;;;;;;3.38;2.42;;;;;;;;;;5053813;28;20048;-56
2021/12/24 01:53:21;;;;;;;3.58;2.63;;;;;;;;;;5053801;28;20063;-52
2021/12/24 01:55:48;;;;;;;4.90;2.40;;;;;;;;;;5054020;28;20195;-55
2021/12/24 01:58:18;;;;;;;5.65;2.05;;;;;;;;;;5053113;28;20033;-54
2021/12/24 02:00:45;;;;;;;2.90;1.73;;;;;;;;;;5053350;28;20033;-54
2021/12/24 02:03:12;;;;;;;3.08;1.85;;;;;;;;;;5035494;28;20034;-55
2021/12/24 02:05:38;;;;;;;3.97;2.30;;;;;;;;;;5033802;28;20037;-56
2021/12/24 02:08:05;;;;;;;3.28;1.83;;;;;;;;;;5032940;28;20022;-53
2021/12/24 02:10:31;;;;;;;3.88;2.63;;;;;;;;;;5033399;28;20174;-56
2021/12/24 02:12:57;;;;;;;5.05;2.47;;;;;;;;;;5044361;28;20028;-56
2021/12/24 02:18:20;;;;;;;4.63;2.00;;;;;;;;;;5052798;28;20032;-54
2021/12/24 02:29:03;;;;;;;5.30;2.63;;;;;;;;;;5070057;28;20500;-55
2021/12/24 02:31:29;;;;;;;3.20;2.22;;;;;;;;;;5056557;28;20056;-55
2021/12/24 02:33:55;;;;;;;3.35;1.83;;;;;;;;;;5052782;28;20036;-56
2021/12/24 02:36:21;;;;;;;2.25;1.42;;;;;;;;;;5052454;28;20044;-56
2021/12/24 02:38:48;;;;;;;6.82;2.70;;;;;;;;;;5052385;28;20025;-53
2021/12/24 02:41:14;;;;;;;2.85;1.70;;;;;;;;;;5052847;28;20514;-55
2021/12/24 02:43:40;;;;;;;3.25;2.20;;;;;;;;;;5053230;28;20052;-55
2021/12/24 02:46:14;;;;;;;3.85;2.05;;;;;;;;;;5052719;28;20091;-53
2021/12/24 02:54:03;;;;;;;4.15;2.00;;;;;;;;;;5052833;28;20104;-54
2021/12/24 02:56:34;;;;;;;4.05;2.03;;;;;;;;;;5052638;28;20457;-54
2021/12/24 02:59:01;;;;;;;3.80;1.65;;;;;;;;;;5051708;28;20029;-55
2021/12/24 03:01:29;;;;;;;6.95;2.42;;;;;;;;;;5048771;28;20084;-54
2021/12/24 03:03:55;;;;;;;3.85;1.90;;;;;;;;;;5032470;28;20034;-54
2021/12/24 03:06:24;;;;;;;3.15;1.63;;;;;;;;;;5032485;28;20022;-52
2021/12/24 03:08:50;;;;;;;3.60;2.42;;;;;;;;;;5031871;28;20396;-52
2021/12/24 03:11:16;;;;;;;6.80;1.77;;;;;;;;;;5032103;28;20506;-54
2021/12/24 03:13:42;;;;;;;2.97;1.98;;;;;;;;;;5047460;28;20463;-56
2021/12/24 03:16:08;;;;;;;3.28;1.92;;;;;;;;;;5052582;28;20025;-54
2021/12/24 03:18:39;;;;;;;3.70;1.75;;;;;;;;;;5051691;28;20387;-54
2021/12/24 03:24:33;;;;;;;3.55;2.10;;;;;;;;;;5052163;28;20372;-54
2021/12/24 03:26:30;;;;;;;8.18;2.28;;;;;;;;;;5051891;28;20037;-53
2021/12/24 03:28:56;;;;;;;3.35;2.10;;;;;;;;;;5051699;28;20029;-54
2021/12/24 03:31:22;;;;;;;4.72;1.98;;;;;;;;;;5052209;28;20037;-54
2021/12/24 03:33:53;;;;;;;4.68;2.28;;;;;;;;;;5052105;28;20032;-54
2021/12/24 03:36:21;;;;;;;3.00;2.13;;;;;;;;;;5051830;28;20033;-55
2021/12/24 03:38:47;;;;;;;4.55;2.30;;;;;;;;;;5051175;28;20467;-50
2021/12/24 03:41:13;;;;;;;3.65;2.28;;;;;;;;;;5051803;28;20494;-55
2021/12/24 03:43:39;;;;;;;4.07;2.10;;;;;;;;;;5052099;28;20029;-56
2021/12/24 03:46:09;;;;;;;4.20;2.28;;;;;;;;;;5052319;28;20031;-55
2021/12/24 03:48:53;;;;;;;2.55;1.65;;;;;;;;;;5053790;28;20025;-52
2021/12/24 03:51:41;;;;;;;2.97;1.90;;;;;;;;;;5055599;28;20025;-56
2021/12/24 03:56:51;;;;;;;2.97;1.90;;;;;;;;;;5056185;28;20090;-52
2021/12/24 03:59:17;;;;;;;3.10;1.75;;;;;;;;;;5055315;28;20471;-52
2021/12/24 04:01:43;;;;;;;3.05;1.75;;;;;;;;;;5049510;28;20458;-53
2021/12/24 04:04:09;;;;;;;3.85;2.08;;;;;;;;;;5035794;28;20467;-56
2021/12/24 04:06:35;;;;;;;3.40;1.65;;;;;;;;;;5035793;28;20380;-53
2021/12/24 04:09:04;;;;;;;3.30;2.00;;;;;;;;;;5035156;28;20025;-55
2021/12/24 04:11:29;;;;;;;2.63;1.70;;;;;;;;;;5035727;28;20036;-55
2021/12/24 04:13:55;;;;;;;5.53;2.40;;;;;;;;;;5054418;28;20025;-54
2021/12/24 04:16:22;;;;;;;3.97;2.45;;;;;;;;;;5055454;28;20037;-56
2021/12/24 04:19:21;;;;;;;2.45;1.75;;;;;;;;;;5055102;28;20112;-54
2021/12/24 04:27:15;;;;;;;5.22;2.03;;;;;;;;;;5055412;28;20071;-53
2021/12/24 04:29:41;;;;;;;4.50;2.35;;;;;;;;;;5054831;28;20029;-52
2021/12/24 04:32:12;;;;;;;4.70;2.10;;;;;;;;;;5050400;28;20434;-56
2021/12/24 04:34:42;;;;;;;3.42;2.00;;;;;;;;;;5055182;28;20494;-56
2021/12/24 04:50:59;;;;;;;2.90;1.90;;;;;;;;;;5054642;28;20033;-55
2021/12/24 05:01:13;;;;;;;5.65;2.08;;;;;;;;;;5054746;28;20449;-52
2021/12/24 05:04:04;;;;;;;3.03;1.80;;;;;;;;;;5054114;28;20115;-51
2021/12/24 05:06:36;;;;;;;2.53;1.83;;;;;;;;;;5054433;28;20043;-55
2021/12/24 05:09:09;;;;;;;3.85;2.15;;;;;;;;;;5054080;28;20390;-51
2021/12/24 05:11:36;;;;;;;3.50;1.63;;;;;;;;;;5054299;28;20463;-54
2021/12/24 05:14:02;;;;;;;2.97;2.05;;;;;;;;;;5054300;28;20021;-54
2021/12/24 05:16:48;;;;;;;2.88;1.75;;;;;;;;;;5052423;28;20035;-53
2021/12/24 05:21:59;;;;;;;2.03;1.25;;;;;;;;;;5054465;28;20076;-55
2021/12/24 05:24:26;;;;;;;3.92;1.77;;;;;;;;;;5054428;28;20457;-54
2021/12/24 05:27:02;;;;;;;6.25;2.50;;;;;;;;;;5053926;28;20453;-51
2021/12/24 05:29:29;;;;;;;3.33;2.13;;;;;;;;;;5054066;28;20029;-54
2021/12/24 05:31:55;;;;;;;3.20;1.98;;;;;;;;;;5054296;28;20036;-53
2021/12/24 05:34:21;;;;;;;4.28;2.10;;;;;;;;;;5054107;28;20028;-54
2021/12/24 05:36:47;;;;;;;4.95;2.58;;;;;;;;;;5053739;28;20456;-56
2021/12/24 05:39:16;;;;;;;2.80;2.15;;;;;;;;;;5053115;28;20096;-54
2021/12/24 05:41:42;;;;;;;3.47;2.13;;;;;;;;;;5053621;28;20044;-53
2021/12/24 05:44:10;;;;;;;2.63;1.73;;;;;;;;;;5054103;28;20033;-56
2021/12/24 05:46:36;;;;;;;2.70;1.95;;;;;;;;;;5053844;28;20025;-55
2021/12/24 05:49:03;;;;;;;2.80;2.03;;;;;;;;;;5053233;28;20025;-54
2021/12/24 05:51:29;;;;;;;6.82;2.08;;;;;;;;;;5053682;28;20067;-56
2021/12/24 05:53:55;;;;;;;3.88;2.30;;;;;;;;;;5052140;28;20052;-54
2021/12/24 05:56:21;;;;;;;6.63;2.67;;;;;;;;;;5053202;28;20029;-55
2021/12/24 05:58:47;;;;;;;2.75;1.52;;;;;;;;;;5053085;28;20079;-53
2021/12/24 06:01:13;;;;;;;2.97;1.95;;;;;;;;;;5053207;28;20052;-53
2021/12/24 06:03:39;;;;;;;3.17;1.90;;;;;;;;;;5053501;28;20029;-55
2021/12/24 06:06:05;;;;;;;4.32;2.17;;;;;;;;;;5053374;28;20078;-56
2021/12/24 06:08:31;;;;;;;3.60;2.03;;;;;;;;;;5052495;28;20040;-55
2021/12/24 06:10:57;;;;;;;5.50;2.60;;;;;;;;;;5052783;28;20055;-57
2021/12/24 06:13:24;;;;;;;3.33;2.20;;;;;;;;;;5053405;28;20040;-55
2021/12/24 06:15:51;;;;;;;3.60;1.95;;;;;;;;;;5053187;28;20025;-54
2021/12/24 06:20:50;;;;;;;2.72;1.70;;;;;;;;;;5053321;28;20040;-55
2021/12/24 06:23:18;;;;;;;3.00;1.67;;;;;;;;;;5052839;28;20053;-56
2021/12/24 06:25:44;;;;;;;3.75;1.65;;;;;;;;;;5053010;28;20024;-57
2021/12/24 06:28:10;;;;;;;4.80;2.75;;;;;;;;;;5052544;28;20032;-57
2021/12/24 06:30:37;;;;;;;4.20;2.65;;;;;;;;;;5053208;28;20037;-55
2021/12/24 06:33:03;;;;;;;2.45;1.98;;;;;;;;;;5052905;28;20024;-56
2021/12/24 06:35:29;;;;;;;3.17;1.95;;;;;;;;;;5053164;28;20068;-56
2021/12/24 06:37:56;;;;;;;5.20;2.20;;;;;;;;;;5051206;28;20059;-54
2021/12/24 06:40:22;;;;;;;4.65;2.25;;;;;;;;;;5033045;28;20069;-56
2021/12/24 06:42:48;;;;;;;3.35;2.13;;;;;;;;;;5032969;28;20091;-54
2021/12/24 06:45:19;;;;;;;4.22;2.83;;;;;;;;;;5032960;28;20037;-53
2021/12/24 06:47:46;;;;;;;2.83;1.95;;;;;;;;;;5047509;28;20033;-55
2021/12/24 06:50:13;;;;;;;4.18;2.85;;;;;;;;;;5052646;28;20032;-54
2021/12/24 06:52:38;;;;;;;3.15;2.00;;;;;;;;;;5052844;28;20032;-55
2021/12/24 06:55:05;;;;;;;3.20;2.15;;;;;;;;;;5052359;28;20146;-55
2021/12/24 06:57:31;;;;;;;3.65;2.20;;;;;;;;;;5052763;28;20396;-55
2021/12/24 06:59:57;;;;;;;4.35;2.50;;;;;;;;;;5051352;28;20036;-53
2021/12/24 07:02:22;;;;;;;6.13;2.42;;;;;;;;;;5052318;28;20040;-55
2021/12/24 07:04:48;;;;;;;3.80;2.30;;;;;;;;;;5052271;28;20022;-54
2021/12/24 07:07:14;;;;;;;3.85;2.25;;;;;;;;;;5052342;28;20021;-55
2021/12/24 07:09:42;;;;;;;3.80;2.53;;;;;;;;;;5051818;28;20475;-55
2021/12/24 07:12:12;;;;;;;3.53;1.90;;;;;;;;;;5052317;28;20020;-56
2021/12/24 07:14:38;;;;;;;6.32;2.70;;;;;;;;;;5052592;28;20024;-55
2021/12/24 07:17:05;;;;;;;5.07;3.22;;;;;;;;;;5052053;28;20080;-53
2021/12/24 07:19:30;;;;;;;2.83;1.77;;;;;;;;;;5051199;28;20029;-54
2021/12/24 07:21:56;;;;;;;4.60;2.33;;;;;;;;;;5051814;28;20449;-51
2021/12/24 07:24:22;;;;;;;5.38;2.70;;;;;;;;;;5051769;28;20049;-56
2021/12/24 07:26:48;;;;;;;5.00;2.60;;;;;;;;;;5051666;28;20033;-52
2021/12/24 07:29:14;;;;;;;3.80;1.83;;;;;;;;;;5051641;28;20117;-49
2021/12/24 07:31:40;;;;;;;3.95;2.00;;;;;;;;;;5050949;28;20375;-54
2021/12/24 07:34:06;;;;;;;3.38;2.10;;;;;;;;;;5051294;28;20047;-53
2021/12/24 07:36:32;;;;;;;4.10;2.58;;;;;;;;;;5052172;28;20067;-54
2021/12/24 07:38:58;;;;;;;4.40;2.70;;;;;;;;;;5051379;28;20057;-54
2021/12/24 07:41:25;;;;;;;3.75;2.35;;;;;;;;;;5051771;28;20036;-54
2021/12/24 07:43:51;;;;;;;5.38;2.13;;;;;;;;;;5047282;28;20387;-53
2021/12/24 07:46:18;;;;;;;5.47;3.13;;;;;;;;;;5039096;28;20094;-54
2021/12/24 07:48:50;;;;;;;3.88;2.50;;;;;;;;;;5040798;28;20124;-52
2021/12/24 07:54:01;;;;;;;4.65;2.72;;;;;;;;;;5052069;28;20094;-55
2021/12/24 07:56:28;;;;;;;4.07;2.28;;;;;;;;;;5051731;28;20116;-55
2021/12/24 07:58:54;;;;;;;5.10;2.63;;;;;;;;;;5050673;28;20391;-54
2021/12/24 08:01:27;;;;;;;3.78;2.22;;;;;;;;;;5051584;28;20033;-52
2021/12/24 08:03:54;;;;;;;3.47;2.47;;;;;;;;;;5051947;28;20033;-54
2021/12/24 08:06:29;;;;;;;3.58;1.88;;;;;;;;;;5051860;28;20044;-53
2021/12/24 08:08:55;;;;;;;6.85;2.55;;;;;;;;;;5043488;28;20041;-53
2021/12/24 08:11:21;;;;;;;3.72;2.25;;;;;;;;;;5032082;28;20029;-54
2021/12/24 08:13:47;;;;;;;4.88;2.22;;;;;;;;;;5049420;28;20040;-55
2021/12/24 08:16:14;;;;;;;3.83;2.10;;;;;;;;;;5051927;28;20029;-52
2021/12/24 08:18:43;;;;;;;4.68;2.47;;;;;;;;;;5050374;28;20041;-55
2021/12/24 08:21:10;;;;;;;3.35;2.50;;;;;;;;;;5051046;28;20529;-54
2021/12/24 08:23:36;;;;;;;4.38;2.42;;;;;;;;;;5051606;28;20041;-55
2021/12/24 08:26:02;;;;;;;3.25;1.80;;;;;;;;;;5051111;28;20025;-53
2021/12/24 08:28:28;;;;;;;4.90;2.42;;;;;;;;;;5039716;28;20275;-55
2021/12/24 08:30:55;;;;;;;4.85;2.72;;;;;;;;;;5031722;28;20137;-55
2021/12/24 08:33:21;;;;;;;3.97;2.60;;;;;;;;;;5031959;28;20048;-52
2021/12/24 08:35:47;;;;;;;6.70;2.95;;;;;;;;;;5034923;28;20120;-53
2021/12/24 08:38:13;;;;;;;4.72;2.55;;;;;;;;;;5045000;28;20466;-52
2021/12/24 08:40:39;;;;;;;3.33;2.22;;;;;;;;;;5054254;28;20035;-55
2021/12/24 08:43:05;;;;;;;4.22;3.08;;;;;;;;;;5054577;28;20017;-55
2021/12/24 08:45:31;;;;;;;4.43;3.08;;;;;;;;;;5054795;28;20040;-56
2021/12/24 08:47:57;;;;;;;4.05;2.97;;;;;;;;;;5048444;28;20033;-54
2021/12/24 08:50:23;;;;;;;5.70;3.10;;;;;;;;;;5034560;28;20589;-53
2021/12/24 08:52:49;;;;;;;3.67;2.45;;;;;;;;;;5034673;28;20031;-55
2021/12/24 08:55:16;;;;;;;4.93;2.78;;;;;;;;;;5051600;28;20463;-54
2021/12/24 08:57:42;;;;;;;4.60;2.95;;;;;;;;;;5053343;28;20037;-53
2021/12/24 09:00:09;;;;;;;7.03;2.65;;;;;;;;;;5053085;28;20032;-52
2021/12/24 09:02:36;;;;;;;4.25;2.35;;;;;;;;;;5054169;28;20033;-50
2021/12/24 09:05:03;;;;;;;3.13;2.08;;;;;;;;;;5054052;28;20025;-53
2021/12/24 09:07:29;;;;;;;3.65;2.30;;;;;;;;;;5050579;28;20037;-54
2021/12/24 09:09:55;;;;;;;3.72;2.45;;;;;;;;;;5053559;28;20117;-55
2021/12/24 09:12:21;;;;;;;5.65;2.85;;;;;;;;;;5054290;28;20025;-50
2021/12/24 09:14:47;;;;;;;3.65;1.95;;;;;;;;;;5054563;28;20033;-49
2021/12/24 09:17:13;;;;;;;4.32;2.58;;;;;;;;;;5047401;28;20033;-50
2021/12/24 09:19:45;;;;;;;3.42;2.28;;;;;;;;;;5046332;28;20463;-51
2021/12/24 09:22:16;;;;;;;3.38;2.47;;;;;;;;;;5053972;28;20060;-51
2021/12/24 09:24:42;;;;;;;;;;;;;;;;;;5054463;28;20060;-53
2021/12/24 09:27:08;;;;;;;3.47;2.53;;;;;;;;;;5048470;28;19912;-51
2021/12/24 09:29:34;;;;;;;8.20;2.72;;;;;;;;;;5047821;28;20029;-52
2021/12/24 09:32:00;;;;;;;4.30;2.95;;;;;;;;;;5059349;28;20552;-51
2021/12/24 09:34:26;;;;;;;4.43;3.10;;;;;;;;;;5047648;28;20074;-53
2021/12/24 09:36:53;;;;;;;3.20;2.70;;;;;;;;;;5053688;28;20108;-51
2021/12/24 09:39:19;;;;;;;4.53;2.25;;;;;;;;;;5052745;28;20479;-55
2021/12/24 09:41:45;;;;;;;3.83;2.83;;;;;;;;;;5053108;28;20163;-55
2021/12/24 09:44:11;;;;;;;4.40;2.65;;;;;;;;;;5054046;28;20029;-53
2021/12/24 09:46:42;;;;;;;5.10;2.65;;;;;;;;;;5054935;28;20029;-54
2021/12/24 09:49:08;;;;;;;6.75;2.75;;;;;;;;;;5051477;28;20033;-55
2021/12/24 09:51:38;;;;;;;4.43;2.33;;;;;;;;;;5052973;28;20505;-54
2021/12/24 09:54:08;;;;;;;7.60;3.38;;;;;;;;;;5053524;28;20103;-52
2021/12/24 09:56:34;;;;;;;4.70;2.60;;;;;;;;;;5053334;28;20029;-51
2021/12/24 09:59:00;;;;;;;4.07;2.67;;;;;;;;;;5052725;28;20039;-53
2021/12/24 10:01:38;;;;;;;4.72;2.75;;;;;;;;;;5052554;28;20075;-54
2021/12/24 10:04:11;;;;;;;5.85;2.50;;;;;;;;;;5051143;28;20025;-55
2021/12/24 10:06:39;;;;;;;5.75;2.63;;;;;;;;;;5053056;28;20088;-55
2021/12/24 10:09:09;;;;;;;4.55;2.72;;;;;;;;;;5051681;28;20025;-54
2021/12/24 10:11:48;;;;;;;4.43;2.97;;;;;;;;;;5052813;28;20389;-54
2021/12/24 10:14:14;;;;;;;4.70;3.00;;;;;;;;;;5049664;28;20037;-52
2021/12/24 10:16:41;;;;;;;3.22;2.58;;;;;;;;;;5052587;28;20029;-55
2021/12/24 10:19:08;;;;;;;3.20;2.42;;;;;;;;;;5051223;28;20364;-52
2021/12/24 10:21:35;;;;;;;5.10;2.97;;;;;;;;;;5051193;28;20087;-53
2021/12/24 10:24:02;;;;;;;7.10;3.85;;;;;;;;;;5051736;28;20162;-55
2021/12/24 10:26:36;;;;;;;3.92;2.40;;;;;;;;;;5051707;28;20078;-54
2021/12/24 10:29:14;;;;;;;3.78;2.45;;;;;;;;;;5050645;28;20621;-51
2021/12/24 10:31:43;;;;;;;5.22;3.15;;;;;;;;;;5052108;28;20037;-55
2021/12/24 10:34:16;;;;;;;5.50;2.85;;;;;;;;;;5052557;28;20104;-57
2021/12/24 10:36:53;;;;;;;3.67;2.67;;;;;;;;;;5052555;28;20517;-51
2021/12/24 10:39:20;;;;;;;4.47;3.67;;;;;;;;;;5039992;28;20029;-55
2021/12/24 10:41:48;;;;;;;5.18;3.38;;;;;;;;;;5050450;28;20040;-55
2021/12/24 10:44:18;;;;;;;4.30;3.60;;;;;;;;;;5051829;28;20128;-55
2021/12/24 10:47:02;;;;;;;5.72;2.95;;;;;;;;;;5050997;28;20082;-53
2021/12/24 10:49:48;;;;;;;8.65;4.47;;;;;;;;;;5052069;28;20153;-50
2021/12/24 10:52:30;;;;;;;6.55;4.25;;;;;;;;;;5051798;28;20054;-54
2021/12/24 10:54:58;;;;;;;6.18;4.03;;;;;;;;;;5039692;28;20104;-54
2021/12/24 10:57:28;;;;;;;8.68;4.07;;;;;;;;;;5047358;28;20097;-52
2021/12/24 10:59:56;;;;;;;7.30;3.80;;;;;;;;;;5046246;28;20024;-56
2021/12/24 11:02:26;;;;;;;6.90;3.47;;;;;;;;;;5045225;28;20029;-56
2021/12/24 11:04:53;;;;;;;5.32;3.15;;;;;;;;;;5052392;28;20028;-51
2021/12/24 11:07:39;;;;;;;6.07;3.78;;;;;;;;;;5051453;28;20113;-55
2021/12/24 11:10:16;;;;;;;4.18;3.05;;;;;;;;;;5046405;28;20549;-57
2021/12/24 11:12:43;;;;;;;3.42;2.50;;;;;;;;;;5046053;28;20174;-54
2021/12/24 11:15:18;;;;;;;5.20;2.58;;;;;;;;;;5051758;28;20079;-57
2021/12/24 11:17:45;;;;;;;5.40;2.92;;;;;;;;;;5051645;28;20021;-52
2021/12/24 11:20:11;;;;;;;4.15;2.20;;;;;;;;;;5050085;28;20112;-57
2021/12/24 11:22:49;;;;;;;8.73;2.53;;;;;;;;;;5039933;28;20025;-55
2021/12/24 11:25:15;;;;;;;2.78;1.90;;;;;;;;;;5045246;28;20499;-55
2021/12/24 11:27:41;;;;;;;4.80;2.20;;;;;;;;;;5047300;28;20022;-52
2021/12/24 11:30:07;;;;;;;3.35;2.35;;;;;;;;;;5046355;28;20387;-55
2021/12/24 11:32:35;;;;;;;3.90;2.60;;;;;;;;;;5042659;28;20115;-52
2021/12/24 11:35:01;;;;;;;3.67;2.47;;;;;;;;;;5037146;28;20037;-54
2021/12/24 11:37:27;;;;;;;4.03;3.08;;;;;;;;;;5026765;28;20122;-57
2021/12/24 11:39:53;;;;;;;3.60;2.42;;;;;;;;;;5021420;28;20033;-54
2021/12/24 11:42:21;;;;;;;3.35;2.53;;;;;;;;;;5021573;28;20045;-55
2021/12/24 11:44:47;;;;;;;4.72;3.13;;;;;;;;;;5021688;28;20594;-56
2021/12/24 11:47:13;;;;;;;3.80;2.55;;;;;;;;;;5021167;28;20144;-55
2021/12/24 11:49:40;;;;;;;4.18;2.58;;;;;;;;;;5031050;28;20029;-55
2021/12/24 11:52:06;;;;;;;4.97;3.50;;;;;;;;;;5049214;28;20378;-54
2021/12/24 11:54:32;;;;;;;4.75;2.75;;;;;;;;;;5048474;28;20037;-52
2021/12/24 11:56:58;;;;;;;5.13;2.42;;;;;;;;;;5043295;28;20528;-54
2021/12/24 11:59:36;;;;;;;6.05;2.55;;;;;;;;;;5046057;28;20378;-53
2021/12/24 12:02:02;;;;;;;3.00;2.10;;;;;;;;;;5048836;28;20090;-54
2021/12/24 12:04:28;;;;;;;4.20;2.28;;;;;;;;;;5049577;28;20107;-55
2021/12/24 12:07:10;;;;;;;3.15;1.95;;;;;;;;;;5049434;28;20128;-55
2021/12/24 12:09:42;;;;;;;2.42;1.67;;;;;;;;;;5049776;28;20025;-53
2021/12/24 12:12:13;;;;;;;3.50;2.33;;;;;;;;;;5050538;28;20033;-54
2021/12/24 12:14:39;;;;;;;3.33;1.52;;;;;;;;;;5053382;28;20029;-54
2021/12/24 12:17:07;;;;;;;3.22;2.22;;;;;;;;;;5054027;28;20082;-53
2021/12/24 12:22:17;;;;;;;2.83;1.88;;;;;;;;;;5053284;28;20083;-53
2021/12/24 12:27:19;;;;;;;5.85;2.17;;;;;;;;;;5041894;28;20083;-53
2021/12/24 12:29:46;;;;;;;3.83;2.25;;;;;;;;;;5048895;28;20371;-51
2021/12/24 12:32:18;;;;;;;2.85;1.80;;;;;;;;;;5051846;28;20028;-53
2021/12/24 12:34:43;;;;;;;3.30;2.50;;;;;;;;;;5052206;28;20064;-53
2021/12/24 12:37:14;;;;;;;5.07;2.05;;;;;;;;;;5050333;28;20463;-54
2021/12/24 12:39:40;;;;;;;3.25;2.05;;;;;;;;;;5051987;28;20032;-52
2021/12/24 12:42:06;;;;;;;2.95;1.98;;;;;;;;;;5051099;28;20475;-53
2021/12/24 12:44:33;;;;;;;5.63;2.13;;;;;;;;;;5049723;28;20499;-49
2021/12/24 12:47:13;;;;;;;5.97;1.73;;;;;;;;;;5051890;28;20133;-55
2021/12/24 12:49:39;;;;;;;3.80;1.65;;;;;;;;;;5051488;28;20021;-52
2021/12/24 12:52:16;;;;;;;2.65;1.40;;;;;;;;;;5049645;28;20120;-56
2021/12/24 12:54:42;;;;;;;3.45;1.58;;;;;;;;;;5047448;28;20111;-55
2021/12/24 12:57:11;;;;;;;3.90;0.98;;;;;;;;;;5040009;28;20048;-57
2021/12/24 12:59:37;;;;;;;2.22;1.42;;;;;;;;;;5045958;28;20119;-56
2021/12/24 13:02:04;;;;;;;2.08;1.52;;;;;;;;;;5050264;28;20072;-55
2021/12/24 13:04:31;;;;;;;2.58;1.42;;;;;;;;;;5052096;28;20041;-50
2021/12/24 13:06:57;;;;;;;2.70;1.52;;;;;;;;;;5052713;28;20060;-51
2021/12/24 13:09:25;;;;;;;1.33;0.82;;;;;;;;;;5052159;28;20021;-53
2021/12/24 13:11:52;;;;;;;2.45;1.55;;;;;;;;;;5049878;28;20036;-56
2021/12/24 13:14:19;;;;;;;2.88;1.40;;;;;;;;;;5047391;28;20025;-55
2021/12/24 13:16:52;;;;;;;2.50;1.27;;;;;;;;;;5051644;28;20021;-56
2021/12/24 13:22:30;;;;;;;2.05;1.40;;;;;;;;;;5033277;28;20096;-56
2021/12/24 13:25:16;;;;;;;2.13;1.17;;;;;;;;;;5046399;28;20685;-56
2021/12/24 13:27:48;;;;;;;1.70;1.10;;;;;;;;;;5051116;28;20035;-56
2021/12/24 13:30:17;;;;;;;7.13;1.33;;;;;;;;;;5048389;28;20436;-56
2021/12/24 13:32:50;;;;;;;1.88;0.77;;;;;;;;;;5036395;28;20120;-55
2021/12/24 13:35:17;;;;;;;3.60;1.33;;;;;;;;;;5048970;28;20029;-52
2021/12/24 13:37:47;;;;;;;1.92;1.08;;;;;;;;;;5045828;28;20381;-52
2021/12/24 13:40:15;;;;;;;2.17;1.23;;;;;;;;;;5048544;28;20059;-56
2021/12/24 13:42:42;;;;;;;2.10;1.25;;;;;;;;;;5053025;28;20063;-53
2021/12/24 13:45:08;;;;;;;2.85;1.60;;;;;;;;;;5051868;28;20029;-55
2021/12/24 13:55:35;;;;;;;1.75;1.05;;;;;;;;;;5048297;28;20056;-53
2021/12/24 13:58:04;;;;;;;2.13;1.05;;;;;;;;;;5051423;28;20029;-53
2021/12/24 14:00:31;;;;;;;2.70;1.67;;;;;;;;;;5052670;28;20041;-53
2021/12/24 14:02:58;;;;;;;1.90;1.17;;;;;;;;;;5051807;28;20036;-54
2021/12/24 14:05:25;;;;;;;2.58;1.63;;;;;;;;;;5046311;28;20121;-54
2021/12/24 14:08:04;;;;;;;1.88;1.10;;;;;;;;;;5046220;28;20032;-56
2021/12/24 14:10:30;;;;;;;2.67;1.70;;;;;;;;;;5047964;28;20037;-56
2021/12/24 14:13:06;;;;;;;3.10;1.63;;;;;;;;;;5042961;28;20126;-56
2021/12/24 14:15:44;;;;;;;3.30;1.10;;;;;;;;;;5045806;28;20033;-56
2021/12/24 14:18:30;;;;;;;4.05;1.58;;;;;;;;;;5047466;28;20029;-57
2021/12/24 14:21:45;;;;;;;2.88;1.25;;;;;;;;;;5046394;28;20071;-54
2021/12/24 14:23:46;;;;;;;2.35;1.38;;;;;;;;;;5048485;28;20075;-54
2021/12/24 14:26:13;;;;;;;3.63;1.17;;;;;;;;;;5043773;28;20521;-55
2021/12/24 14:28:49;;;;;;;2.50;1.20;;;;;;;;;;5045088;28;20100;-55
2021/12/24 14:31:15;;;;;;;1.83;1.05;;;;;;;;;;5041505;28;20459;-56
2021/12/24 14:33:46;;;;;;;1.88;0.95;;;;;;;;;;5043093;28;20037;-55
2021/12/24 14:36:19;;;;;;;2.58;1.17;;;;;;;;;;5043333;28;20093;-54
2021/12/24 14:38:45;;;;;;;2.70;1.23;;;;;;;;;;5048236;28;20033;-54
2021/12/24 14:41:18;;;;;;;1.85;1.05;;;;;;;;;;5045648;28;20036;-56
2021/12/24 14:43:45;;;;;;;1.50;0.75;;;;;;;;;;5035512;28;20079;-54
2021/12/24 14:46:11;;;;;;;1.60;0.88;;;;;;;;;;5045561;28;20025;-55
2021/12/24 14:48:37;;;;;;;1.95;1.10;;;;;;;;;;5040909;28;20037;-54
2021/12/24 14:51:12;;;;;;;1.90;0.90;;;;;;;;;;5043614;28;20028;-50
2021/12/24 14:53:39;;;;;;;1.25;0.68;;;;;;;;;;5042859;28;20046;-54
2021/12/24 14:56:05;;;;;;;3.55;1.00;;;;;;;;;;5041513;28;20382;-56
2021/12/24 14:58:34;;;;;;;1.75;0.98;;;;;;;;;;5044905;28;20033;-56
2021/12/24 15:01:02;;;;;;;4.88;1.60;;;;;;;;;;5048516;28;20076;-54
2021/12/24 15:03:32;;;;;;;10.52;4.32;;;;;;;;;;5045764;28;20032;-56
2021/12/24 15:05:59;;;;;;;5.68;2.38;;;;;;;;;;5042372;28;20481;-55
2021/12/24 15:08:27;;;;;;;2.60;1.38;;;;;;;;;;5047799;28;20560;-54
2021/12/24 15:11:12;;;;;;;2.00;0.95;;;;;;;;;;5049368;28;20139;-53
2021/12/24 15:13:39;;;;;;;2.42;0.98;;;;;;;;;;5043162;28;20021;-55
2021/12/24 15:16:05;;;;;;;1.92;0.82;;;;;;;;;;5036970;28;20521;-56
2021/12/24 15:18:34;;;;;;;2.25;1.02;;;;;;;;;;5039500;28;20029;-54
2021/12/24 15:21:00;;;;;;;2.92;0.93;;;;;;;;;;5038880;28;20037;-55
2021/12/24 15:23:26;;;;;;;1.42;0.73;;;;;;;;;;5043979;28;20116;-53
2021/12/24 15:25:52;;;;;;;4.28;1.23;;;;;;;;;;5048018;28;20163;-56
2021/12/24 15:28:23;;;;;;;2.33;1.10;;;;;;;;;;5047586;28;20107;-55
2021/12/24 15:30:49;;;;;;;1.35;0.85;;;;;;;;;;5048188;28;20041;-56
2021/12/24 15:33:15;;;;;;;2.95;1.45;;;;;;;;;;5039648;28;20483;-54
2021/12/24 15:35:41;;;;;;;5.13;1.65;;;;;;;;;;5043194;28;20036;-56
2021/12/24 15:38:07;;;;;;;1.70;1.00;;;;;;;;;;5047917;28;20086;-55
2021/12/24 15:40:33;;;;;;;1.45;0.98;;;;;;;;;;5047108;28;20035;-55
2021/12/24 15:43:02;;;;;;;1.95;0.98;;;;;;;;;;5050695;28;20047;-52
2021/12/24 15:45:29;;;;;;;2.72;1.50;;;;;;;;;;5054405;28;20100;-53
2021/12/24 15:47:55;;;;;;;2.05;1.27;;;;;;;;;;5051137;28;20116;-54
2021/12/24 15:50:21;;;;;;;2.30;1.27;;;;;;;;;;5048240;28;20541;-50
2021/12/24 15:52:47;;;;;;;2.10;0.98;;;;;;;;;;5046281;28;20029;-54
2021/12/24 15:55:13;;;;;;;4.57;1.27;;;;;;;;;;5053684;28;20032;-49
2021/12/24 15:57:39;;;;;;;1.90;1.00;;;;;;;;;;5046872;28;20044;-52
2021/12/24 16:00:05;;;;;;;2.45;1.17;;;;;;;;;;5039133;28;20040;-53
2021/12/24 16:02:31;;;;;;;2.38;0.90;;;;;;;;;;5053079;28;20044;-55
2021/12/24 16:04:57;;;;;;;1.73;0.88;;;;;;;;;;5054017;28;20341;-56
2021/12/24 16:07:23;;;;;;;1.45;0.82;;;;;;;;;;5051443;28;20037;-54
2021/12/24 16:09:49;;;;;;;2.00;1.00;;;;;;;;;;5053009;28;20029;-55
2021/12/24 16:12:15;;;;;;;1.60;0.82;;;;;;;;;;5041603;28;20033;-53
2021/12/24 16:14:43;;;;;;;1.77;1.33;;;;;;;;;;5039231;28;20061;-56
2021/12/24 16:17:09;;;;;;;4.45;3.05;;;;;;;;;;5050603;28;20381;-56
2021/12/24 16:19:35;;;;;;;3.10;1.88;;;;;;;;;;5050557;28;20025;-54
2021/12/24 16:22:01;;;;;;;4.30;2.25;;;;;;;;;;5041281;28;20095;-53
2021/12/24 16:24:27;;;;;;;3.15;2.10;;;;;;;;;;5048332;28;20489;-56
2021/12/24 16:26:53;;;;;;;4.60;2.85;;;;;;;;;;5041760;28;20033;-54
2021/12/24 16:29:22;;;;;;;2.35;1.13;;;;;;;;;;5041736;28;20393;-52
2021/12/24 16:31:48;;;;;;;2.75;1.70;;;;;;;;;;5047500;28;20029;-55
2021/12/24 16:34:15;;;;;;;3.47;2.35;;;;;;;;;;5046214;28;20033;-57
2021/12/24 16:36:41;;;;;;;2.58;1.52;;;;;;;;;;5045023;28;20033;-57